Terminal Aerodrome Forecast
Issued by NWS

Home | Current Version | Previous Version | Text Only | Print | Product List | Glossary On
Versions: 1 2 3 4 5 6 7 8 9 10 11 12 13 14 15 16 17 18 19 20 21 22 23 24
000
FTUS44 KFWD 141500 AAA
TAFGKY
TAF AMD
KGKY 141501Z 1415/1512 22010KT P6SM FEW090 SCT250
     FM142000 29009KT P6SM VCTS SCT090CB BKN200
     FM150200 36004KT P6SM SCT100 BKN200
     FM150900 03008KT P6SM VCSH BKN080=

USA.gov is the U.S. government's official web portal to all federal, state and local government web resources and services.